Latest Conditions
At L.F.Wade Int. Airport
Recorded at 7:55 pm
Partly Cloudy
Temp.: 
20°C/67°F
Humidity: 
85%
Wind: 
NW 10KT
or 12mph
UV Index: 
0
Island Observations
 
Observations
Sunday, February 17, 2019

Observations are in local time and taken at least once an hour, or upon the start and end of specified events such as showers and thunderstorms.

Time Sky / Weather Wind Speed/Gusts Temp. R.H. Pressure
     knots (mph)  °C (°F)  %  mb / "Hg
 19:55 Partly Cloudy  NW 10/0 (12/0) 20(67) 85 1019 / 30.09
 18:55 Few Clouds  WNW 8/0 (9/0) 20(67) 89 1018 / 30.06
 17:55 Few Clouds  W 13/0 (15/0) 20(68) 88 1017 / 30.02
 17:28 Partly Cloudy  W 13/0 (15/0) 21(69) 91 1017 / 30.02
 16:55 Mostly Cloudy  W 16/0 (18/0) 21(70) 90 1016 / 30.00
 16:44 Mostly Cloudy  W 16/0 (18/0) 21(70) 90 1016 / 30.00
 15:55 Few Clouds  WSW 14/0 (16/0) 21(71) 89 1016 / 29.99
 15:22 Mostly Cloudy  W 16/0 (18/0) 21(70) 89 1015 / 29.98
 14:55 Partly Cloudy  W 15/0 (17/0) 21(71) 88 1015 / 29.98
 14:31 Partly Cloudy  W 15/0 (17/0) 21(71) 88 1015 / 29.98
 13:55 Few Clouds  W 14/0 (16/0) 21(71) 85 1015 / 29.98
 13:40 Partly Cloudy  W 16/0 (18/0) 21(70) 85 1015 / 29.98
 13:20 Mostly Cloudy  W 18/0 (21/0) 21(70) 85 1016 / 29.99
 12:55 Mostly Cloudy  W 17/0 (20/0) 21(70) 85 1016 / 29.99
 11:55 Mostly Cloudy  WSW 17/0 (20/0) 21(71) 83 1016 / 29.99
 10:55 Mostly Cloudy  WSW 23/0 (26/0) 21(71) 86 1015 / 29.98
 09:55 Mostly Cloudy  SW 21/0 (24/0) 22(71) 85 1015 / 29.98
 08:55 Mostly Cloudy  WSW 21/0 (24/0) 21(70) 82 1015 / 29.97
 07:55 Mostly Cloudy  SW 16/0 (18/0) 20(69) 85 1014 / 29.95
 06:55 Mostly Cloudy  WSW 14/0 (16/0) 20(68) 87 1014 / 29.94
 05:55 Mostly Cloudy  WSW 13/0 (15/0) 20(68) 88 1013 / 29.92
 04:55 Mostly Cloudy  WSW 12/0 (14/0) 20(67) 86 1013 / 29.91
 03:55 Mostly Cloudy  WSW 12/0 (14/0) 20(68) 93 1013 / 29.90
 02:55 Mostly Cloudy  WSW 14/0 (16/0) 20(68) 93 1012 / 29.89
 01:55 Mostly Cloudy  SW 12/0 (14/0) 20(68) 94 1013 / 29.90
 00:55 Overcast  SW 12/0 (14/0) 20(67) 94 1013 / 29.91
 00:22 Overcast  SW 10/0 (12/0) 20(67) 94 1013 / 29.90
 23:55 Overcast  WSW 11/0 (13/0) 20(67) 94 1013 / 29.92
 22:55 Overcast  WSW 10/0 (12/0) 20(68) 94 1013 / 29.91
 21:55 Overcast  W 9/0 (10/0) 20(68) 94 1013 / 29.90
 20:55 Overcast  WSW 13/0 (15/0) 20(69) 93 1013 / 29.91
 19:55 Overcast  SW 11/0 (13/0) 20(69) 93 1013 / 29.90
 18:55 Overcast  WSW 12/0 (14/0) 21(69) 92 1012 / 29.87
 17:55 Overcast  WSW 14/0 (16/0) 21(69) 92 1011 / 29.86
 17:21 Overcast Showers SW 16/0 (18/0) 21(69) 92 1011 / 29.86
 17:03 Overcast Showers SW 12/0 (14/0) 21(70) 94 1011 / 29.86
 16:55 Overcast Showers SW 15/0 (17/0) 21(70) 93 1011 / 29.86
 16:44 Overcast Showers SW 15/0 (17/0) 21(71) 92 1011 / 29.86
 15:55 Overcast  SW 13/0 (15/0) 21(70) 93 1011 / 29.86
 15:36 Overcast  SW 16/0 (18/0) 21(70) 94 1011 / 29.86
 14:55 Overcast  SSW 15/0 (17/0) 21(70) 94 1011 / 29.86
 13:55 Overcast  SW 13/0 (15/0) 21(71) 94 1011 / 29.86
 13:27 Overcast Showers SSW 13/0 (15/0) 21(71) 94 1012 / 29.87
 13:18 Overcast Showers SSW 14/0 (16/0) 21(70) 95 1012 / 29.88
 12:55 Overcast Showers SW 12/0 (14/0) 22(72) 89 1012 / 29.89
 12:27 Overcast Showers SW 10/0 (12/0) 19(67) 95 1013 / 29.90
 11:55 Overcast Showers SSW 13/0 (15/0) 21(71) 92 1013 / 29.91
 11:32 Overcast  SW 12/0 (14/0) 22(71) 91 1013 / 29.92
 11:14 Mostly Cloudy  SW 11/0 (13/0) 22(71) 91 1014 / 29.93
 10:55 Mostly Cloudy  WSW 11/0 (13/0) 21(70) 91 1014 / 29.93
 10:39 Mostly Cloudy  SW 12/0 (14/0) 21(70) 91 1014 / 29.93
 09:55 Mostly Cloudy  SSW 9/0 (10/0) 20(69) 94 1013 / 29.92
 08:55 Mostly Cloudy  S 7/0 (8/0) 20(69) 95 1013 / 29.92
 08:41 Mostly Cloudy Showers S 6/0 (7/0) 20(68) 95 1013 / 29.92
 08:19 Mostly Cloudy Drizzle SSW 6/0 (7/0) 20(67) 96 1014 / 29.93
 07:55 Mostly Cloudy Showers SSW 4/0 (5/0) 20(67) 96 1013 / 29.91
 07:46 Mostly Cloudy Drizzle SW 3/0 (3/0) 19(67) 87 1013 / 29.91
 06:55 Overcast  SW 2/0 (2/0) 19(66) 94 1013 / 29.91
 05:55 Overcast  SW 5/0 (6/0) 19(67) 93 1013 / 29.92
 05:18 Overcast  SW 8/0 (9/0) 19(66) 94 1013 / 29.91
 04:55 Overcast  SSW 3/0 (3/0) 18(65) 96 1013 / 29.91
 04:43 Overcast  SSW 2/0 (2/0) 18(65) 94 1013 / 29.90
 03:55 Partly Cloudy  S 4/0 (5/0) 19(66) 92 1013 / 29.91
 03:31 Mostly Cloudy  SSW 5/0 (6/0) 19(66) 92 1013 / 29.91
 02:55 Mostly Cloudy  S 5/0 (6/0) 19(66) 92 1013 / 29.92
 01:55 Mostly Cloudy  S 6/0 (7/0) 19(66) 92 1014 / 29.94
 01:15 Mostly Cloudy  SSE 5/0 (6/0) 19(66) 93 1014 / 29.95
 00:55 Mostly Cloudy  SE 6/0 (7/0) 18(65) 94 1014 / 29.95
 23:55 Mostly Cloudy  ESE 5/0 (6/0) 18(65) 94 1015 / 29.96
 22:55 Mostly Cloudy  E 7/0 (8/0) 18(64) 92 1015 / 29.97
 22:22 Mostly Cloudy  E 9/0 (10/0) 18(65) 90 1015 / 29.97
 21:55 Mostly Cloudy  E 10/0 (12/0) 19(65) 90 1015 / 29.97
 20:55 Mostly Cloudy  E 9/0 (10/0) 18(65) 91 1016 / 29.99
 19:55 Mostly Cloudy  E 9/0 (10/0) 18(65) 90 1016 / 29.99
 18:55 Mostly Cloudy  E 12/0 (14/0) 18(65) 89 1015 / 29.97
 17:55 Mostly Cloudy  E 11/0 (13/0) 18(65) 89 1016 / 29.99
 17:30 Mostly Cloudy  ENE 10/0 (12/0) 19(65) 89 1016 / 29.99
 16:55 Mostly Cloudy  ENE 10/0 (12/0) 19(66) 90 1015 / 29.98
 16:03 Mostly Cloudy Showers E 10/0 (12/0) 19(65) 91 1015 / 29.97
 15:55 Mostly Cloudy Rain ENE 9/0 (10/0) 18(65) 91 1015 / 29.98
 14:55 Overcast Rain ENE 10/0 (12/0) 18(65) 90 1016 / 29.99
 13:55 Overcast Rain E 12/0 (14/0) 18(65) 90 1016 / 30.01
 13:31 Overcast Showers E 14/0 (16/0) 18(65) 89 1016 / 30.00
 12:55 Overcast Showers E 19/0 (22/0) 18(65) 89 1016 / 29.99
 12:39 Overcast Showers ESE 19/0 (22/0) 18(65) 89 1016 / 30.00
 11:55 Overcast Showers E 21/0 (24/0) 18(65) 91 1017 / 30.03
 11:16 Overcast Showers E 19/0 (22/0) 18(64) 92 1018 / 30.05
 10:55 Overcast Rain E 24/0 (28/0) 18(64) 93 1018 / 30.05
 10:22 Overcast Rain E 24/0 (28/0) 18(64) 92 1018 / 30.05
 09:55 Overcast Rain E 19/0 (22/0) 17(63) 92 1019 / 30.08
 08:55 Overcast Rain E 20/0 (23/0) 17(62) 92 1019 / 30.08
 08:19 Overcast Showers E 18/0 (21/0) 16(62) 89 1019 / 30.09
 07:55 Overcast Showers ENE 20/0 (23/0) 16(61) 91 1019 / 30.08
 07:23 Overcast Rain ENE 20/0 (23/0) 16(60) 90 1019 / 30.08
 06:55 Overcast Rain E 21/0 (24/0) 16(60) 93 1018 / 30.07
 05:55 Overcast Rain ENE 16/0 (18/0) 14(58) 95 1020 / 30.11
 05:23 Overcast Rain E 17/0 (20/0) 14(57) 95 1019 / 30.10
 04:55 Overcast Rain E 18/0 (21/0) 14(56) 94 1019 / 30.10
 04:15 Overcast Rain E 16/0 (18/0) 14(56) 94 1020 / 30.11
 03:55 Overcast Rain E 13/0 (15/0) 13(56) 94 1020 / 30.11
Island AWOS